Thompson, Nebraska
Current Conditions -  °F | °C
As of 2:35 AM on Friday 28 Nov 2014 (Local Time) from KHJH Reporting Station
Clear Clear  
Wind Chill: 25°   Ceiling: Unl
Heat Index: 31°   Visibility: 10mi
Dew Point: 19°   Wind: 6mph
Humidity: 63%   Direction: 170°S
Pressure: 29.97"   Gusts: NA
Location:  40.1696°N, 97.2152°W
Report Text: KHJH 280835Z AUTO 17005KT 10SM CLR M01/M07 A2997 RMK AO2 T10081070
Loading
Personal Weather Stations






























Interactive Weather Map New forecast layout! Learn more

10-Day Weather Forecast

Advertisements
Track Severe Weather on mobile